Darstellungsparameter: Aktuell verwendete Einstellungen:
Skalierung der Graphiken ... ?
xyx+y,   Skalierungsfaktor:      Skalierung: Modus: x, Faktor: 1
Darstellungszeitraum ... ?
Vom - - bis: - -   Zeitraum: 13.09.2015 - 13.09.2015
Min/Max/Avg-Anzeige ... ?
Zeige MMA aktuell
Zeige MMA Monat
Zeige MMA alles
Zeige --A aktuell
Zeige --A Monat
Zeige --A alles
Keine MMA-Anzeige
MMA:
Average (ber die Originaldaten)
MMA-Basis: 13.09.2015 - 13.09.2015
Quicknavigation für Darstellung... ?
Tage:      1T, 2T, 3T, 5T -1T -2T -3T -5T +1T +2T +3T +5T
Wochen: 1W, 2W, 3W -1W -2W -3W +1W +2W +3W
Monate: 1M, 3M, 6M -1M -3M -6M +1M +3M +6M
Jahre:    1J, 3J, 5J, 10J -1J -3J -5J -10J +1J +3J +5J +10J
Nutze für die Darstellung ... ?
Originaldaten oder Mittelwerte auf ...
Stundenbasis Tagesbasis Wochenbasis
Monatsbasis Jahresbasis      Datenbasis: Original-Daten
Darstellen als:
Statistik (Auto) Statistik J:M      Darstellung:
Zur Graphik,    zurück zur Übersicht aller Sensoren.
 
Tabellarische Datenbersicht: ?
 
Sensor: Nr:Datum:Temp:Abs-Feuchte:Windchill:Wind:
Aussen-T/F 1 13-09-2015 00:00:00 16.4 C 13.12 g/m*3 16.4 C 0 km/h
2 13-09-2015 00:05:00 16.4 C 13.12 g/m*3 16.4 C 0 km/h
3 13-09-2015 00:10:00 16.3 C 13.04 g/m*3 16.3 C 0 km/h
4 13-09-2015 00:15:00 16.3 C 13.04 g/m*3 16.3 C 0 km/h
5 13-09-2015 00:20:00 16.2 C 12.96 g/m*3 16.2 C 0 km/h
6 13-09-2015 00:25:00 16.2 C 12.96 g/m*3 16.2 C 0 km/h
7 13-09-2015 00:30:00 16.2 C 12.96 g/m*3 16.2 C 0 km/h
8 13-09-2015 00:35:00 16.1 C 12.88 g/m*3 16.1 C 0 km/h
9 13-09-2015 00:40:00 16.1 C 12.88 g/m*3 16.1 C 0 km/h
10 13-09-2015 00:45:00 16.1 C 12.88 g/m*3 16.1 C 0 km/h
11 13-09-2015 00:50:00 16 C 12.81 g/m*3 16 C 0 km/h
12 13-09-2015 00:55:00 15.9 C 12.73 g/m*3 15.9 C 0 km/h
13 13-09-2015 01:00:00 15.9 C 12.73 g/m*3 15.9 C 0 km/h
14 13-09-2015 01:05:00 15.8 C 12.65 g/m*3 15.8 C 0 km/h
15 13-09-2015 01:10:00 15.8 C 12.65 g/m*3 15.8 C 0 km/h
16 13-09-2015 01:15:00 15.8 C 12.79 g/m*3 15.8 C 0 km/h
17 13-09-2015 01:20:00 15.8 C 12.79 g/m*3 15.8 C 0 km/h
18 13-09-2015 01:25:00 15.8 C 12.79 g/m*3 15.8 C 0 km/h
19 13-09-2015 01:30:00 15.8 C 12.79 g/m*3 15.8 C 0 km/h
20 13-09-2015 01:35:00 15.9 C 12.87 g/m*3 15.9 C 0 km/h
21 13-09-2015 01:40:00 15.9 C 12.87 g/m*3 15.9 C 0 km/h
22 13-09-2015 01:45:00 15.9 C 12.87 g/m*3 15.9 C 0 km/h
23 13-09-2015 01:50:00 15.8 C 12.79 g/m*3 15.8 C 0 km/h
24 13-09-2015 01:55:00 15.8 C 12.79 g/m*3 15.8 C 0 km/h
25 13-09-2015 02:00:00 15.8 C 12.79 g/m*3 15.8 C 0 km/h
Sensor: Nr:Datum:Temp:Abs-Feuchte:Windchill:Wind:
Aussen-T/F 26 13-09-2015 02:05:00 15.8 C 12.79 g/m*3 15.8 C 0 km/h
27 13-09-2015 02:10:00 15.7 C 12.71 g/m*3 15.7 C 0 km/h
28 13-09-2015 02:15:00 15.7 C 12.71 g/m*3 15.7 C 0 km/h
29 13-09-2015 02:20:00 15.7 C 12.71 g/m*3 15.7 C 0 km/h
30 13-09-2015 02:25:00 15.6 C 12.63 g/m*3 15.6 C 0 km/h
31 13-09-2015 02:30:00 15.6 C 12.63 g/m*3 15.6 C 0 km/h
32 13-09-2015 02:35:00 15.6 C 12.63 g/m*3 15.6 C 0 km/h
33 13-09-2015 02:40:00 15.6 C 12.63 g/m*3 15.6 C 0 km/h
34 13-09-2015 02:45:00 15.6 C 12.63 g/m*3 15.6 C 0 km/h
35 13-09-2015 02:50:00 15.5 C 12.56 g/m*3 15.5 C 0 km/h
36 13-09-2015 02:55:00 15.5 C 12.56 g/m*3 15.5 C 0 km/h
37 13-09-2015 03:00:00 15.6 C 12.63 g/m*3 15.6 C 0 km/h
38 13-09-2015 03:05:00 15.6 C 12.63 g/m*3 15.6 C 0 km/h
39 13-09-2015 03:10:00 15.6 C 12.63 g/m*3 15.6 C 0 km/h
40 13-09-2015 03:15:00 15.7 C 12.71 g/m*3 15.7 C 0 km/h
41 13-09-2015 03:20:00 15.7 C 12.71 g/m*3 15.7 C 0 km/h
42 13-09-2015 03:25:00 15.8 C 12.79 g/m*3 15.8 C 0 km/h
43 13-09-2015 03:30:00 15.8 C 12.79 g/m*3 15.8 C 0 km/h
44 13-09-2015 03:35:00 15.8 C 12.79 g/m*3 15.8 C 0 km/h
45 13-09-2015 03:40:00 15.9 C 12.87 g/m*3 15.9 C 0 km/h
46 13-09-2015 03:45:00 15.9 C 12.87 g/m*3 15.9 C 0 km/h
47 13-09-2015 03:50:00 15.9 C 12.87 g/m*3 15.9 C 0 km/h
48 13-09-2015 03:55:00 15.9 C 12.87 g/m*3 15.9 C 0 km/h
49 13-09-2015 04:00:00 15.9 C 12.87 g/m*3 15.9 C 0 km/h
50 13-09-2015 04:05:00 15.9 C 12.87 g/m*3 15.9 C 0 km/h
Sensor: Nr:Datum:Temp:Abs-Feuchte:Windchill:Wind:
Aussen-T/F 51 13-09-2015 04:10:00 15.9 C 12.87 g/m*3 15.9 C 0 km/h
52 13-09-2015 04:15:00 15.9 C 12.87 g/m*3 15.9 C 0 km/h
53 13-09-2015 04:20:00 16 C 12.94 g/m*3 16 C 0 km/h
54 13-09-2015 04:25:00 16 C 12.94 g/m*3 16 C 0 km/h
55 13-09-2015 04:30:00 16.1 C 13.02 g/m*3 16.1 C 0 km/h
56 13-09-2015 04:35:00 16.1 C 13.02 g/m*3 16.1 C 0 km/h
57 13-09-2015 04:40:00 16.1 C 12.88 g/m*3 16.1 C 0 km/h
58 13-09-2015 04:45:00 16.1 C 12.88 g/m*3 16.1 C 0 km/h
59 13-09-2015 04:50:00 16.1 C 12.88 g/m*3 16.1 C 0 km/h
60 13-09-2015 04:55:00 16.1 C 12.88 g/m*3 16.1 C 0 km/h
61 13-09-2015 05:00:00 16.1 C 12.88 g/m*3 16.1 C 0 km/h
62 13-09-2015 05:05:00 16.1 C 12.88 g/m*3 16.1 C 0 km/h
63 13-09-2015 05:10:00 16.1 C 12.88 g/m*3 16.1 C 0 km/h
64 13-09-2015 05:15:00 16 C 12.81 g/m*3 16 C 0 km/h
65 13-09-2015 05:20:00 16 C 12.81 g/m*3 16 C 0 km/h
66 13-09-2015 05:25:00 16 C 12.81 g/m*3 16 C 0 km/h
67 13-09-2015 05:30:00 16 C 12.81 g/m*3 16 C 0 km/h
68 13-09-2015 05:35:00 16 C 12.81 g/m*3 16 C 0 km/h
69 13-09-2015 05:40:00 16.1 C 12.88 g/m*3 16.1 C 0 km/h
70 13-09-2015 05:45:00 16.1 C 12.88 g/m*3 16.1 C 0 km/h
71 13-09-2015 05:50:00 16.1 C 12.88 g/m*3 16.1 C 0 km/h
72 13-09-2015 05:55:00 16.1 C 12.88 g/m*3 16.1 C 0 km/h
73 13-09-2015 06:00:00 16.1 C 12.88 g/m*3 16.1 C 0 km/h
74 13-09-2015 06:05:00 16.1 C 12.88 g/m*3 16.1 C 0 km/h
75 13-09-2015 06:10:00 16 C 12.81 g/m*3 16 C 0 km/h
Sensor: Nr:Datum:Temp:Abs-Feuchte:Windchill:Wind:
Aussen-T/F 76 13-09-2015 06:15:00 16 C 12.81 g/m*3 16 C 0 km/h
77 13-09-2015 06:20:00 16 C 12.81 g/m*3 16 C 0 km/h
78 13-09-2015 06:25:00 16 C 12.81 g/m*3 16 C 0 km/h
79 13-09-2015 06:30:00 16.1 C 12.88 g/m*3 16.1 C 0 km/h
80 13-09-2015 06:35:00 16.1 C 12.88 g/m*3 16.1 C 0 km/h
81 13-09-2015 06:40:00 16.1 C 12.88 g/m*3 16.1 C 1.6 km/h
82 13-09-2015 06:45:00 16.1 C 12.88 g/m*3 16.1 C 0 km/h
83 13-09-2015 06:50:00 16.1 C 12.88 g/m*3 16.1 C 0 km/h
84 13-09-2015 06:55:00 16.2 C 12.96 g/m*3 16.2 C 1.6 km/h
85 13-09-2015 07:00:00 16.3 C 13.04 g/m*3 16.3 C 0 km/h
86 13-09-2015 07:05:00 16.4 C 12.98 g/m*3 16.4 C 0 km/h
87 13-09-2015 07:10:00 16.4 C 12.98 g/m*3 16.4 C 0 km/h
88 13-09-2015 07:15:00 16.5 C 13.06 g/m*3 16.5 C 1.6 km/h
89 13-09-2015 07:20:00 16.6 C 13.14 g/m*3 16.6 C 0 km/h
90 13-09-2015 07:25:00 16.6 C 13 g/m*3 16.6 C 1.6 km/h
91 13-09-2015 07:30:00 16.7 C 13.07 g/m*3 16.7 C 0 km/h
92 13-09-2015 07:35:00 16.8 C 13.15 g/m*3 16.8 C 0 km/h
93 13-09-2015 07:40:00 16.9 C 13.09 g/m*3 16.9 C 1.6 km/h
94 13-09-2015 07:45:00 16.9 C 12.94 g/m*3 16.9 C 1.6 km/h
95 13-09-2015 07:50:00 17.1 C 13.1 g/m*3 17.1 C 0 km/h
96 13-09-2015 07:55:00 17.2 C 13.18 g/m*3 17.2 C 1.6 km/h
97 13-09-2015 08:00:00 17.2 C 13.18 g/m*3 17.2 C 3.2 km/h
98 13-09-2015 08:05:00 17.3 C 13.11 g/m*3 17.3 C 3.2 km/h
99 13-09-2015 08:10:00 17.3 C 13.11 g/m*3 17.3 C 3.2 km/h
100 13-09-2015 08:15:00 17.3 C 13.11 g/m*3 17.3 C 3.2 km/h
Sensor: Nr:Datum:Temp:Abs-Feuchte:Windchill:Wind:
Aussen-T/F 101 13-09-2015 08:20:00 17.3 C 13.11 g/m*3 17.3 C 0 km/h
102 13-09-2015 08:25:00 17.4 C 13.19 g/m*3 17.4 C 1.6 km/h
103 13-09-2015 08:30:00 17.4 C 13.34 g/m*3 17.4 C 0 km/h
104 13-09-2015 08:35:00 17.4 C 13.34 g/m*3 17.4 C 0 km/h
105 13-09-2015 08:40:00 17.3 C 13.26 g/m*3 17.3 C 0 km/h
106 13-09-2015 08:45:00 17.3 C 13.26 g/m*3 17.3 C 3.2 km/h
107 13-09-2015 08:50:00 17.4 C 13.19 g/m*3 17.4 C 0 km/h
108 13-09-2015 08:55:00 17.5 C 13.42 g/m*3 17.5 C 0 km/h
109 13-09-2015 09:00:00 17.6 C 13.35 g/m*3 17.6 C 3.2 km/h
110 13-09-2015 09:05:00 17.7 C 13.43 g/m*3 17.7 C 1.6 km/h
111 13-09-2015 09:10:00 17.7 C 13.43 g/m*3 17.7 C 0 km/h
112 13-09-2015 09:15:00 17.7 C 13.43 g/m*3 17.7 C 0 km/h
113 13-09-2015 09:20:00 17.8 C 13.51 g/m*3 17.8 C 0 km/h
114 13-09-2015 09:25:00 17.9 C 13.59 g/m*3 17.9 C 0 km/h
115 13-09-2015 09:30:00 17.9 C 13.59 g/m*3 17.9 C 0 km/h
116 13-09-2015 09:35:00 17.9 C 13.59 g/m*3 17.9 C 0 km/h
117 13-09-2015 09:40:00 17.9 C 13.44 g/m*3 17.9 C 0 km/h
118 13-09-2015 09:45:00 18.1 C 13.75 g/m*3 18.1 C 0 km/h
119 13-09-2015 09:50:00 18.2 C 13.68 g/m*3 18.2 C 0 km/h
120 13-09-2015 09:55:00 18.2 C 13.37 g/m*3 18.2 C 3.2 km/h
121 13-09-2015 10:00:00 18.3 C 13.29 g/m*3 18.3 C 1.6 km/h
122 13-09-2015 10:05:00 18.5 C 13.45 g/m*3 18.5 C 3.2 km/h
123 13-09-2015 10:10:00 18.6 C 13.37 g/m*3 18.6 C 3.2 km/h
124 13-09-2015 10:15:00 18.6 C 13.37 g/m*3 18.6 C 1.6 km/h
125 13-09-2015 10:20:00 18.7 C 13.45 g/m*3 18.7 C 1.6 km/h
Sensor: Nr:Datum:Temp:Abs-Feuchte:Windchill:Wind:
Aussen-T/F 126 13-09-2015 10:25:00 18.7 C 13.29 g/m*3 18.7 C 3.2 km/h
127 13-09-2015 10:30:00 18.7 C 13.29 g/m*3 18.7 C 6.4 km/h
128 13-09-2015 10:35:00 18.8 C 13.37 g/m*3 18.8 C 4.8 km/h
129 13-09-2015 10:40:00 18.8 C 13.37 g/m*3 18.8 C 4.8 km/h
130 13-09-2015 10:45:00 18.9 C 13.61 g/m*3 18.9 C 4.8 km/h
131 13-09-2015 10:50:00 18.9 C 13.45 g/m*3 18.9 C 1.6 km/h
132 13-09-2015 10:55:00 18.9 C 13.61 g/m*3 18.9 C 4.8 km/h
133 13-09-2015 11:00:00 18.9 C 13.45 g/m*3 18.9 C 3.2 km/h
134 13-09-2015 11:05:00 18.9 C 13.61 g/m*3 18.9 C 0 km/h
135 13-09-2015 11:10:00 19 C 13.36 g/m*3 19 C 0 km/h
136 13-09-2015 11:15:00 19.1 C 13.61 g/m*3 19.1 C 3.2 km/h
137 13-09-2015 11:20:00 19.1 C 13.44 g/m*3 19.1 C 1.6 km/h
138 13-09-2015 11:25:00 19.2 C 13.52 g/m*3 19.2 C 1.6 km/h
139 13-09-2015 11:30:00 19.2 C 13.52 g/m*3 19.2 C 3.2 km/h
140 13-09-2015 11:35:00 19.2 C 13.69 g/m*3 19.2 C 0 km/h
141 13-09-2015 11:40:00 19.2 C 13.85 g/m*3 19.2 C 3.2 km/h
142 13-09-2015 11:45:00 19.2 C 14.18 g/m*3 19.2 C 1.6 km/h
143 13-09-2015 11:50:00 19.1 C 14.1 g/m*3 19.1 C 0 km/h
144 13-09-2015 11:55:00 18.9 C 13.93 g/m*3 18.9 C 4.8 km/h
145 13-09-2015 12:00:00 18.7 C 14.09 g/m*3 18.7 C 0 km/h
146 13-09-2015 12:05:00 18.5 C 14.08 g/m*3 18.5 C 0 km/h
147 13-09-2015 12:10:00 18.3 C 14.07 g/m*3 18.3 C 0 km/h
148 13-09-2015 12:15:00 18.2 C 14.14 g/m*3 18.2 C 0 km/h
149 13-09-2015 12:20:00 18.2 C 14.3 g/m*3 18.2 C 0 km/h
150 13-09-2015 12:25:00 18.2 C 14.3 g/m*3 18.2 C 0 km/h
Sensor: Nr:Datum:Temp:Abs-Feuchte:Windchill:Wind:
Aussen-T/F 151 13-09-2015 12:30:00 18.2 C 14.3 g/m*3 18.2 C 1.6 km/h
152 13-09-2015 12:35:00 18.2 C 14.3 g/m*3 18.2 C 4.8 km/h
153 13-09-2015 12:40:00 18.1 C 13.91 g/m*3 18.1 C 6.4 km/h
154 13-09-2015 12:45:00 18.2 C 13.83 g/m*3 18.2 C 4.8 km/h
155 13-09-2015 12:50:00 18.3 C 14.07 g/m*3 18.3 C 4.8 km/h
156 13-09-2015 12:55:00 18.2 C 13.83 g/m*3 18.2 C 4.8 km/h
157 13-09-2015 13:00:00 18.3 C 13.92 g/m*3 18.3 C 1.6 km/h
158 13-09-2015 13:05:00 18.4 C 14 g/m*3 18.4 C 4.8 km/h
159 13-09-2015 13:10:00 18.4 C 13.84 g/m*3 18.4 C 3.2 km/h
160 13-09-2015 13:15:00 18.4 C 13.84 g/m*3 18.4 C 3.2 km/h
161 13-09-2015 13:20:00 18.4 C 13.84 g/m*3 18.4 C 3.2 km/h
162 13-09-2015 13:25:00 18.4 C 13.84 g/m*3 18.4 C 1.6 km/h
163 13-09-2015 13:30:00 18.5 C 13.77 g/m*3 18.5 C 6.4 km/h
164 13-09-2015 13:35:00 18.6 C 14.01 g/m*3 18.6 C 4.8 km/h
165 13-09-2015 13:40:00 18.6 C 14.01 g/m*3 18.6 C 3.2 km/h
166 13-09-2015 13:45:00 18.6 C 14.17 g/m*3 18.6 C 4.8 km/h
167 13-09-2015 13:50:00 18.6 C 14.17 g/m*3 18.6 C 3.2 km/h
168 13-09-2015 13:55:00 18.6 C 14.17 g/m*3 18.6 C 1.6 km/h
169 13-09-2015 14:00:00 18.4 C 14 g/m*3 18.4 C 3.2 km/h
170 13-09-2015 14:05:00 18.3 C 13.92 g/m*3 18.3 C 4.8 km/h
171 13-09-2015 14:10:00 18.3 C 14.07 g/m*3 18.3 C 3.2 km/h
172 13-09-2015 14:15:00 18.2 C 14.14 g/m*3 18.2 C 4.8 km/h
173 13-09-2015 14:20:00 18.2 C 14.14 g/m*3 18.2 C 1.6 km/h
174 13-09-2015 14:25:00 18.3 C 14.23 g/m*3 18.3 C 3.2 km/h
175 13-09-2015 14:30:00 18.2 C 14.14 g/m*3 18.2 C 1.6 km/h
Sensor: Nr:Datum:Temp:Abs-Feuchte:Windchill:Wind:
Aussen-T/F 176 13-09-2015 14:35:00 18.2 C 14.3 g/m*3 18.2 C 1.6 km/h
177 13-09-2015 14:40:00 18.2 C 14.3 g/m*3 18.2 C 0 km/h
178 13-09-2015 14:45:00 18.2 C 14.3 g/m*3 18.2 C 0 km/h
179 13-09-2015 14:50:00 18.2 C 14.3 g/m*3 18.2 C 1.6 km/h
180 13-09-2015 14:55:00 18.2 C 14.3 g/m*3 18.2 C 4.8 km/h
181 13-09-2015 15:00:00 18.1 C 14.21 g/m*3 18.1 C 0 km/h
182 13-09-2015 15:05:00 18.1 C 14.21 g/m*3 18.1 C 3.2 km/h
183 13-09-2015 15:10:00 18.1 C 14.21 g/m*3 18.1 C 0 km/h
184 13-09-2015 15:15:00 18.1 C 14.37 g/m*3 18.1 C 1.6 km/h
185 13-09-2015 15:20:00 18.1 C 14.37 g/m*3 18.1 C 1.6 km/h
186 13-09-2015 15:25:00 18.1 C 14.37 g/m*3 18.1 C 0 km/h
187 13-09-2015 15:30:00 18.1 C 14.37 g/m*3 18.1 C 1.6 km/h
188 13-09-2015 15:35:00 17.9 C 14.2 g/m*3 17.9 C 1.6 km/h
189 13-09-2015 15:40:00 17.9 C 14.2 g/m*3 17.9 C 0 km/h
190 13-09-2015 15:45:00 18 C 14.28 g/m*3 18 C 0 km/h
191 13-09-2015 15:50:00 18.1 C 14.52 g/m*3 18.1 C 0 km/h
192 13-09-2015 15:55:00 18.1 C 14.52 g/m*3 18.1 C 1.6 km/h
193 13-09-2015 16:00:00 18.1 C 14.37 g/m*3 18.1 C 1.6 km/h
194 13-09-2015 16:05:00 18.1 C 14.37 g/m*3 18.1 C 1.6 km/h
195 13-09-2015 16:10:00 18.2 C 14.61 g/m*3 18.2 C 0 km/h
196 13-09-2015 16:15:00 18.3 C 14.7 g/m*3 18.3 C 1.6 km/h
197 13-09-2015 16:20:00 18.3 C 14.54 g/m*3 18.3 C 0 km/h
198 13-09-2015 16:25:00 18.3 C 14.7 g/m*3 18.3 C 0 km/h
199 13-09-2015 16:30:00 18.3 C 14.7 g/m*3 18.3 C 0 km/h
200 13-09-2015 16:35:00 18.3 C 14.7 g/m*3 18.3 C 0 km/h
Sensor: Nr:Datum:Temp:Abs-Feuchte:Windchill:Wind:
Aussen-T/F 201 13-09-2015 16:40:00 18.3 C 14.7 g/m*3 18.3 C 0 km/h
202 13-09-2015 16:45:00 18.2 C 14.61 g/m*3 18.2 C 0 km/h
203 13-09-2015 16:50:00 18.2 C 14.61 g/m*3 18.2 C 4.8 km/h
204 13-09-2015 16:55:00 18.1 C 14.52 g/m*3 18.1 C 6.4 km/h
205 13-09-2015 17:00:00 18 C 14.44 g/m*3 18 C 3.2 km/h
206 13-09-2015 17:05:00 18.1 C 14.52 g/m*3 18.1 C 3.2 km/h
207 13-09-2015 17:10:00 18.1 C 14.52 g/m*3 18.1 C 0 km/h
208 13-09-2015 17:15:00 18.1 C 14.52 g/m*3 18.1 C 0 km/h
209 13-09-2015 17:20:00 18.1 C 14.68 g/m*3 18.1 C 0 km/h
210 13-09-2015 17:25:00 18.2 C 14.77 g/m*3 18.2 C 0 km/h
211 13-09-2015 17:30:00 18.2 C 14.77 g/m*3 18.2 C 0 km/h
212 13-09-2015 17:35:00 18.2 C 14.77 g/m*3 18.2 C 0 km/h
213 13-09-2015 17:40:00 18.3 C 14.85 g/m*3 18.3 C 1.6 km/h
214 13-09-2015 17:45:00 18.3 C 14.85 g/m*3 18.3 C 0 km/h
215 13-09-2015 17:50:00 18.2 C 14.77 g/m*3 18.2 C 0 km/h
216 13-09-2015 17:55:00 18.2 C 14.77 g/m*3 18.2 C 0 km/h
217 13-09-2015 18:00:00 18.3 C 14.85 g/m*3 18.3 C 0 km/h
218 13-09-2015 18:05:00 18.3 C 14.85 g/m*3 18.3 C 0 km/h
219 13-09-2015 18:10:00 18.3 C 14.85 g/m*3 18.3 C 0 km/h
220 13-09-2015 18:15:00 18.2 C 14.61 g/m*3 18.2 C 0 km/h
221 13-09-2015 18:20:00 18.3 C 14.7 g/m*3 18.3 C 3.2 km/h
222 13-09-2015 18:25:00 18.6 C 15.12 g/m*3 18.6 C 1.6 km/h
223 13-09-2015 18:30:00 18.6 C 14.96 g/m*3 18.6 C 0 km/h
224 13-09-2015 18:35:00 18.6 C 14.96 g/m*3 18.6 C 0 km/h
225 13-09-2015 18:40:00 18.6 C 14.96 g/m*3 18.6 C 0 km/h
Sensor: Nr:Datum:Temp:Abs-Feuchte:Windchill:Wind:
Aussen-T/F 226 13-09-2015 18:45:00 18.7 C 15.05 g/m*3 18.7 C 0 km/h
227 13-09-2015 18:50:00 18.6 C 14.96 g/m*3 18.6 C 0 km/h
228 13-09-2015 18:55:00 18.6 C 14.96 g/m*3 18.6 C 0 km/h
229 13-09-2015 19:00:00 18.6 C 14.96 g/m*3 18.6 C 0 km/h
230 13-09-2015 19:05:00 18.5 C 14.87 g/m*3 18.5 C 0 km/h
231 13-09-2015 19:10:00 18.4 C 14.63 g/m*3 18.4 C 0 km/h
232 13-09-2015 19:15:00 18.2 C 14.46 g/m*3 18.2 C 0 km/h
233 13-09-2015 19:20:00 17.9 C 14.2 g/m*3 17.9 C 0 km/h
234 13-09-2015 19:25:00 17.8 C 14.27 g/m*3 17.8 C 0 km/h
235 13-09-2015 19:30:00 17.6 C 14.1 g/m*3 17.6 C 0 km/h
236 13-09-2015 19:35:00 17.4 C 13.93 g/m*3 17.4 C 0 km/h
237 13-09-2015 19:40:00 17.2 C 13.77 g/m*3 17.2 C 0 km/h
238 13-09-2015 19:45:00 17.1 C 13.68 g/m*3 17.1 C 0 km/h
239 13-09-2015 19:50:00 16.8 C 13.44 g/m*3 16.8 C 0 km/h
240 13-09-2015 19:55:00 16.7 C 13.36 g/m*3 16.7 C 0 km/h
241 13-09-2015 20:00:00 16.6 C 13.42 g/m*3 16.6 C 0 km/h
242 13-09-2015 20:05:00 16.4 C 13.26 g/m*3 16.4 C 0 km/h
243 13-09-2015 20:10:00 16.3 C 13.18 g/m*3 16.3 C 0 km/h
244 13-09-2015 20:15:00 16.2 C 13.1 g/m*3 16.2 C 0 km/h
245 13-09-2015 20:20:00 16.2 C 13.1 g/m*3 16.2 C 0 km/h
246 13-09-2015 20:25:00 16.1 C 13.02 g/m*3 16.1 C 0 km/h
247 13-09-2015 20:30:00 15.9 C 12.87 g/m*3 15.9 C 0 km/h
248 13-09-2015 20:35:00 15.9 C 12.87 g/m*3 15.9 C 0 km/h
249 13-09-2015 20:40:00 15.9 C 13 g/m*3 15.9 C 0 km/h
250 13-09-2015 20:45:00 15.8 C 12.92 g/m*3 15.8 C 0 km/h
Sensor: Nr:Datum:Temp:Abs-Feuchte:Windchill:Wind:
Aussen-T/F 251 13-09-2015 20:50:00 15.8 C 12.92 g/m*3 15.8 C 0 km/h
252 13-09-2015 20:55:00 15.8 C 12.92 g/m*3 15.8 C 0 km/h
253 13-09-2015 21:00:00 15.8 C 12.92 g/m*3 15.8 C 0 km/h
254 13-09-2015 21:05:00 15.8 C 12.92 g/m*3 15.8 C 0 km/h
255 13-09-2015 21:10:00 15.8 C 12.92 g/m*3 15.8 C 0 km/h
256 13-09-2015 21:15:00 15.7 C 12.84 g/m*3 15.7 C 0 km/h
257 13-09-2015 21:20:00 15.7 C 12.84 g/m*3 15.7 C 0 km/h
258 13-09-2015 21:25:00 15.7 C 12.84 g/m*3 15.7 C 0 km/h
259 13-09-2015 21:30:00 15.7 C 12.84 g/m*3 15.7 C 0 km/h
260 13-09-2015 21:35:00 15.6 C 12.77 g/m*3 15.6 C 0 km/h
261 13-09-2015 21:40:00 15.6 C 12.77 g/m*3 15.6 C 0 km/h
262 13-09-2015 21:45:00 15.5 C 12.69 g/m*3 15.5 C 0 km/h
263 13-09-2015 21:50:00 15.4 C 12.61 g/m*3 15.4 C 1.6 km/h
264 13-09-2015 21:55:00 15.4 C 12.61 g/m*3 15.4 C 0 km/h
265 13-09-2015 22:00:00 15.3 C 12.54 g/m*3 15.3 C 0 km/h
266 13-09-2015 22:05:00 15.4 C 12.61 g/m*3 15.4 C 0 km/h
267 13-09-2015 22:10:00 15.4 C 12.61 g/m*3 15.4 C 0 km/h
268 13-09-2015 22:15:00 15.3 C 12.54 g/m*3 15.3 C 0 km/h
269 13-09-2015 22:20:00 15.3 C 12.54 g/m*3 15.3 C 0 km/h
270 13-09-2015 22:25:00 15.4 C 12.61 g/m*3 15.4 C 0 km/h
271 13-09-2015 22:30:00 15.4 C 12.61 g/m*3 15.4 C 0 km/h
272 13-09-2015 22:35:00 15.4 C 12.74 g/m*3 15.4 C 0 km/h
273 13-09-2015 22:40:00 15.4 C 12.61 g/m*3 15.4 C 0 km/h
274 13-09-2015 22:45:00 15.5 C 12.82 g/m*3 15.5 C 0 km/h
275 13-09-2015 22:50:00 15.5 C 12.82 g/m*3 15.5 C 0 km/h
Sensor: Nr:Datum:Temp:Abs-Feuchte:Windchill:Wind:
Aussen-T/F 276 13-09-2015 22:55:00 15.5 C 12.82 g/m*3 15.5 C 0 km/h
277 13-09-2015 23:00:00 15.5 C 12.82 g/m*3 15.5 C 0 km/h
278 13-09-2015 23:05:00 15.5 C 12.82 g/m*3 15.5 C 0 km/h
279 13-09-2015 23:10:00 15.4 C 12.74 g/m*3 15.4 C 0 km/h
280 13-09-2015 23:15:00 15.5 C 12.82 g/m*3 15.5 C 0 km/h
281 13-09-2015 23:20:00 15.6 C 12.9 g/m*3 15.6 C 0 km/h
282 13-09-2015 23:25:00 15.6 C 12.9 g/m*3 15.6 C 0 km/h
283 13-09-2015 23:30:00 15.8 C 13.06 g/m*3 15.8 C 12.9 km/h
284 13-09-2015 23:35:00 15.9 C 13.14 g/m*3 15.9 C 3.2 km/h
285 13-09-2015 23:40:00 16 C 13.22 g/m*3 16 C 0 km/h
286 13-09-2015 23:45:00 15.9 C 13.14 g/m*3 15.9 C 0 km/h
287 13-09-2015 23:50:00 15.9 C 13.14 g/m*3 15.9 C 0 km/h
288 13-09-2015 23:55:00 15.9 C 13.14 g/m*3 15.9 C 0 km/h

Legende:
   Min
   Max


Maximal/Minimal-Werte vom 13.09.2015 - 13.09.2015

Sensor Min Max Avg
Temp
(Aussen-T/F)
15.3 °C
13-09-2015  22:00:00
19.2 °C
13-09-2015  11:25:00
17.07 °C
Abs-Feuchte
(Aussen-T/F)
12.54 g/m*3
13-09-2015  22:00:00
15.12 g/m*3
13-09-2015  18:25:00
13.41 g/m*3
Windchill
(Aussen-T/F)
15.3 C
13-09-2015  22:00:00
19.2 C
13-09-2015  11:25:00
17.01 C

Die Daten stammen von einer Davis Vantage Pro 2 Wetter-Station und werden unter Linux mit der Software wview2wettercgi und aufbereitet. Alle Angaben erfolgen ohne Gewähr für ihre Vollständigkeit oder Richtigkeit.
Kontakt: Rainer Krienke krienke@uni-koblenz.de . Meine Webseiten an der Uni Koblenz oder privat.
Version: $Revision: 0.78 $